createdAt,value
2019-01-23T00:00:43.294Z,0.29
2019-01-23T00:01:43.284Z,0.29
2019-01-23T00:02:43.269Z,0.34
2019-01-23T00:03:43.263Z,0.32
2019-01-23T00:04:43.261Z,0.29
2019-01-23T00:05:43.240Z,0.28
2019-01-23T00:06:43.210Z,0.25
2019-01-23T00:07:42.961Z,0.28
2019-01-23T00:08:43.189Z,0.31
2019-01-23T00:09:42.925Z,0.34
2019-01-23T00:10:42.922Z,0.28
2019-01-23T00:11:42.899Z,0.22
2019-01-23T00:12:42.889Z,0.22
2019-01-23T00:13:43.148Z,0.21
2019-01-23T00:14:42.866Z,0.28
2019-01-23T00:15:43.111Z,0.32
2019-01-23T00:16:42.839Z,0.32
2019-01-23T00:17:42.821Z,0.32
2019-01-23T00:18:42.813Z,0.28
2019-01-23T00:19:42.817Z,0.21
2019-01-23T00:20:42.810Z,0.16
2019-01-23T00:21:42.785Z,0.21
2019-01-23T00:22:43.019Z,0.11
2019-01-23T00:23:43.004Z,0.15
2019-01-23T00:24:42.747Z,0.12
2019-01-23T00:25:42.750Z,0.1
2019-01-23T00:26:42.964Z,0.18
2019-01-23T00:27:42.969Z,0.1
2019-01-23T00:28:47.167Z,-0.02
2019-01-23T00:29:42.690Z,0.03
2019-01-23T00:30:42.917Z,-0.06
2019-01-23T00:31:42.404Z,0
2019-01-23T00:32:42.653Z,0.04
2019-01-23T00:33:42.897Z,0.07
2019-01-23T00:34:42.616Z,-0.03
2019-01-23T00:35:42.617Z,0.11
2019-01-23T00:36:42.865Z,0.1
2019-01-23T00:37:42.849Z,0.12
2019-01-23T00:38:42.579Z,0.07
2019-01-23T00:39:42.815Z,0.18
2019-01-23T00:40:42.554Z,0.12
2019-01-23T00:41:42.817Z,-0.03
2019-01-23T00:42:42.270Z,-0.03
2019-01-23T00:43:42.266Z,0.05
2019-01-23T00:44:42.492Z,0.08
2019-01-23T00:45:42.233Z,-0.07
2019-01-23T00:46:42.474Z,-0.03
2019-01-23T00:47:42.222Z,0.05
2019-01-23T00:48:42.462Z,-0.06
2019-01-23T00:49:42.690Z,0.1
2019-01-23T00:50:42.423Z,0.11
2019-01-23T00:51:42.651Z,0.1
2019-01-23T00:52:42.396Z,0.16
2019-01-23T00:53:42.390Z,0.16
2019-01-23T00:54:42.371Z,0.15
2019-01-23T00:55:42.122Z,0.19
2019-01-23T00:56:42.353Z,0.18
2019-01-23T00:57:42.572Z,0.12
2019-01-23T00:58:48.992Z,0.12
2019-01-23T00:59:42.054Z,0.15
2019-01-23T01:00:42.296Z,0.12
2019-01-23T01:01:42.281Z,0.12
2019-01-23T01:02:42.507Z,0.11
2019-01-23T01:03:42.255Z,0.07
2019-01-23T01:04:42.497Z,0.05
2019-01-23T01:05:42.483Z,0.01
2019-01-23T01:06:42.214Z,-0.03
2019-01-23T01:07:42.226Z,0
2019-01-23T01:08:42.448Z,-0.03
2019-01-23T01:09:42.184Z,-0.08
2019-01-23T01:10:41.925Z,0.04
2019-01-23T01:11:41.912Z,-0.02
2019-01-23T01:12:42.394Z,-0.02
2019-01-23T01:13:42.128Z,-0.03
2019-01-23T01:14:42.125Z,-0.03
2019-01-23T01:15:42.114Z,-0.08
2019-01-23T01:16:41.852Z,-0.07
2019-01-23T01:17:42.332Z,-0.06
2019-01-23T01:18:42.065Z,-0.06
2019-01-23T01:19:42.040Z,-0.03
2019-01-23T01:20:41.797Z,-0.07
2019-01-23T01:21:41.775Z,-0.03
2019-01-23T01:22:42.016Z,-0.08
2019-01-23T01:23:42.254Z,-0.06
2019-01-23T01:24:42.247Z,-0.08
2019-01-23T01:25:41.738Z,-0.07
2019-01-23T01:26:42.217Z,0
2019-01-23T01:27:41.955Z,-0.08
2019-01-23T01:28:41.936Z,-0.13
2019-01-23T01:29:42.165Z,-0.08
2019-01-23T01:30:42.162Z,-0.14
2019-01-23T01:31:41.890Z,-0.11
2019-01-23T01:32:41.904Z,-0.13
2019-01-23T01:33:42.126Z,-0.13
2019-01-23T01:34:42.111Z,-0.13
2019-01-23T01:35:41.914Z,-0.11
2019-01-23T01:36:41.583Z,-0.15
2019-01-23T01:37:41.816Z,-0.1
2019-01-23T01:38:42.053Z,-0.18
2019-01-23T01:39:42.607Z,-0.14
2019-01-23T01:40:41.531Z,-0.13
2019-01-23T01:41:42.028Z,-0.11
2019-01-23T01:42:42.010Z,-0.21
2019-01-23T01:43:41.741Z,-0.15
2019-01-23T01:44:41.735Z,-0.13
2019-01-23T01:45:41.733Z,-0.17
2019-01-23T01:46:41.950Z,-0.17
2019-01-23T01:47:41.941Z,-0.08
2019-01-23T01:48:41.691Z,-0.06
2019-01-23T01:49:41.918Z,-0.13
2019-01-23T01:50:41.678Z,-0.11
2019-01-23T01:51:41.907Z,-0.08
2019-01-23T01:52:41.646Z,-0.28
2019-01-23T01:53:41.620Z,-0.28
2019-01-23T01:54:41.593Z,-0.26
2019-01-23T01:55:41.344Z,-0.15
2019-01-23T01:56:41.576Z,-0.08
2019-01-23T01:57:41.825Z,-0.1
2019-01-23T01:58:41.801Z,-0.13
2019-01-23T01:59:42.349Z,-0.15
2019-01-23T02:00:41.526Z,-0.11
2019-01-23T02:01:41.259Z,-0.07
2019-01-23T02:02:41.500Z,-0.18
2019-01-23T02:03:41.499Z,-0.23
2019-01-23T02:04:41.748Z,-0.25
2019-01-23T02:05:41.464Z,-0.28
2019-01-23T02:06:41.447Z,-0.18
2019-01-23T02:07:41.237Z,-0.28
2019-01-23T02:08:41.682Z,-0.31
2019-01-23T02:09:45.422Z,-0.43
2019-01-23T02:10:41.390Z,-0.44
2019-01-23T02:11:41.651Z,-0.43
2019-01-23T02:12:41.375Z,-0.49
2019-01-23T02:13:41.357Z,-0.52
2019-01-23T02:14:41.595Z,-0.46
2019-01-23T02:15:41.326Z,-0.43
2019-01-23T02:16:41.311Z,-0.47
2019-01-23T02:17:41.299Z,-0.46
2019-01-23T02:18:41.045Z,-0.54
2019-01-23T02:19:41.282Z,-0.5
2019-01-23T02:20:41.016Z,-0.61
2019-01-23T02:21:41.007Z,-0.65
2019-01-23T02:22:41.233Z,-0.61
2019-01-23T02:23:41.469Z,-0.65
2019-01-23T02:24:41.201Z,-0.72
2019-01-23T02:25:41.439Z,-0.62
2019-01-23T02:26:41.420Z,-0.68
2019-01-23T02:27:41.163Z,-0.7
2019-01-23T02:28:41.182Z,-0.65
2019-01-23T02:29:41.394Z,-0.62
2019-01-23T02:30:41.400Z,-0.61
2019-01-23T02:31:41.157Z,-0.5
2019-01-23T02:32:40.871Z,-0.56
2019-01-23T02:33:40.846Z,-0.7
2019-01-23T02:34:41.327Z,-0.57
2019-01-23T02:35:41.070Z,-0.65
2019-01-23T02:36:41.054Z,-0.67
2019-01-23T02:37:41.055Z,-0.7
2019-01-23T02:38:41.279Z,-0.75
2019-01-23T02:39:41.014Z,-0.75
2019-01-23T02:40:41.019Z,-0.78
2019-01-23T02:41:41.236Z,-0.8
2019-01-23T02:42:40.980Z,-0.93
2019-01-23T02:43:40.955Z,-0.96
2019-01-23T02:44:40.962Z,-0.96
2019-01-23T02:45:40.925Z,-1.01
2019-01-23T02:46:40.963Z,-1.02
2019-01-23T02:47:40.899Z,-1.11
2019-01-23T02:48:40.884Z,-1.04
2019-01-23T02:49:40.874Z,-1.14
2019-01-23T02:50:40.856Z,-1.22
2019-01-23T02:51:40.846Z,-1.19
2019-01-23T02:52:40.581Z,-1.35
2019-01-23T02:53:40.817Z,-1.27
2019-01-23T02:54:40.801Z,-1.3
2019-01-23T02:55:40.803Z,-1.41
2019-01-23T02:56:41.019Z,-1.44
2019-01-23T02:57:40.768Z,-1.56
2019-01-23T02:58:41.024Z,-1.56
2019-01-23T02:59:40.995Z,-1.61
2019-01-23T03:00:40.484Z,-1.68
2019-01-23T03:01:40.456Z,-1.66
2019-01-23T03:02:40.466Z,-1.59
2019-01-23T03:03:40.924Z,-1.61
2019-01-23T03:04:40.927Z,-1.69
2019-01-23T03:05:40.912Z,-1.72
2019-01-23T03:06:40.890Z,-1.72
2019-01-23T03:07:40.372Z,-1.76
2019-01-23T03:08:40.419Z,-1.83
2019-01-23T03:09:40.365Z,-1.87
2019-01-23T03:10:40.331Z,-1.82
2019-01-23T03:11:40.585Z,-1.76
2019-01-23T03:12:40.805Z,-1.74
2019-01-23T03:13:40.796Z,-1.8
2019-01-23T03:14:40.783Z,-1.86
2019-01-23T03:15:40.514Z,-1.9
2019-01-23T03:16:40.752Z,-1.97
2019-01-23T03:17:40.493Z,-2.01
2019-01-23T03:18:40.485Z,-2.01
2019-01-23T03:19:40.723Z,-2.02
2019-01-23T03:20:40.442Z,-2
2019-01-23T03:21:40.686Z,-2.01
2019-01-23T03:22:40.166Z,-1.98
2019-01-23T03:23:40.415Z,-1.98
2019-01-23T03:24:40.410Z,-1.92
2019-01-23T03:25:40.621Z,-2
2019-01-23T03:26:40.387Z,-2.02
2019-01-23T03:27:40.594Z,-1.92
2019-01-23T03:28:40.077Z,-2.02
2019-01-23T03:29:40.324Z,-2.12
2019-01-23T03:30:40.569Z,-2.07
2019-01-23T03:31:40.340Z,-2.18
2019-01-23T03:32:40.285Z,-2.12
2019-01-23T03:33:40.255Z,-2.15
2019-01-23T03:34:40.248Z,-2.25
2019-01-23T03:35:39.986Z,-2.23
2019-01-23T03:36:40.487Z,-2.28
2019-01-23T03:37:40.202Z,-2.35
2019-01-23T03:38:40.180Z,-2.35
2019-01-23T03:39:40.424Z,-2.35
2019-01-23T03:40:40.416Z,-2.23
2019-01-23T03:41:40.134Z,-2.32
2019-01-23T03:42:40.134Z,-2.38
2019-01-23T03:43:40.155Z,-2.32
2019-01-23T03:44:40.099Z,-2.26
2019-01-23T03:45:40.327Z,-2.25
2019-01-23T03:46:40.321Z,-2.19
2019-01-23T03:47:40.049Z,-2.13
2019-01-23T03:48:40.134Z,-2.15
2019-01-23T03:49:39.776Z,-2.13
2019-01-23T03:50:40.012Z,-2.18
2019-01-23T03:51:40.244Z,-2.15
2019-01-23T03:52:39.994Z,-2.23
2019-01-23T03:53:39.980Z,-2.16
2019-01-23T03:54:40.185Z,-2.21
2019-01-23T03:55:39.947Z,-2.28
2019-01-23T03:56:39.915Z,-2.22
2019-01-23T03:57:40.195Z,-2.25
2019-01-23T03:58:40.144Z,-2.21
2019-01-23T03:59:40.128Z,-2.26
2019-01-23T04:00:40.114Z,-2.38
2019-01-23T04:01:40.126Z,-2.35
2019-01-23T04:02:40.070Z,-2.44
2019-01-23T04:03:39.813Z,-2.4
2019-01-23T04:04:40.066Z,-2.38
2019-01-23T04:05:40.041Z,-2.38
2019-01-23T04:06:40.014Z,-2.41
2019-01-23T04:07:40.015Z,-2.38
2019-01-23T04:08:40.005Z,-2.47
2019-01-23T04:09:39.989Z,-2.56
2019-01-23T04:10:40.009Z,-2.53
2019-01-23T04:11:39.562Z,-2.59
2019-01-23T04:12:39.703Z,-2.56
2019-01-23T04:13:39.913Z,-2.73
2019-01-23T04:14:39.910Z,-2.66
2019-01-23T04:15:39.637Z,-2.62
2019-01-23T04:16:39.861Z,-2.7
2019-01-23T04:17:39.860Z,-2.66
2019-01-23T04:18:39.597Z,-2.7
2019-01-23T04:19:39.821Z,-2.73
2019-01-23T04:20:39.822Z,-2.66
2019-01-23T04:21:39.552Z,-2.66
2019-01-23T04:22:39.299Z,-2.69
2019-01-23T04:23:39.526Z,-2.73
2019-01-23T04:24:39.499Z,-2.74
2019-01-23T04:25:39.732Z,-2.71
2019-01-23T04:26:39.727Z,-2.81
2019-01-23T04:27:39.707Z,-2.83
2019-01-23T04:28:39.438Z,-2.81
2019-01-23T04:29:44.506Z,-2.84
2019-01-23T04:30:39.651Z,-2.88
2019-01-23T04:31:39.675Z,-2.83
2019-01-23T04:32:39.631Z,-2.91
2019-01-23T04:33:39.627Z,-2.91
2019-01-23T04:34:39.601Z,-2.83
2019-01-23T04:35:39.607Z,-2.84
2019-01-23T04:36:39.600Z,-2.83
2019-01-23T04:37:39.324Z,-2.81
2019-01-23T04:38:39.569Z,-2.8
2019-01-23T04:39:39.273Z,-2.84
2019-01-23T04:40:39.501Z,-2.86
2019-01-23T04:41:39.252Z,-2.88
2019-01-23T04:42:39.230Z,-2.95
2019-01-23T04:43:39.462Z,-2.94
2019-01-23T04:44:39.457Z,-2.95
2019-01-23T04:45:39.211Z,-2.94
2019-01-23T04:46:39.182Z,-2.97
2019-01-23T04:47:39.397Z,-3.06
2019-01-23T04:48:39.404Z,-2.98
2019-01-23T04:49:39.702Z,-2.95
2019-01-23T04:50:39.116Z,-2.94
2019-01-23T04:51:39.100Z,-2.98
2019-01-23T04:52:39.096Z,-2.94
2019-01-23T04:53:39.059Z,-2.98
2019-01-23T04:54:39.304Z,-3.04
2019-01-23T04:55:39.290Z,-3.12
2019-01-23T04:56:39.025Z,-3.09
2019-01-23T04:57:39.254Z,-3.07
2019-01-23T04:58:39.238Z,-3.04
2019-01-23T04:59:39.217Z,-3.01
2019-01-23T05:00:39.214Z,-3.02
2019-01-23T05:01:38.942Z,-2.99
2019-01-23T05:02:39.187Z,-3.09
2019-01-23T05:03:39.178Z,-2.99
2019-01-23T05:04:39.160Z,-3.09
2019-01-23T05:05:39.130Z,-3.07
2019-01-23T05:06:38.897Z,-3.09
2019-01-23T05:07:38.603Z,-3.1
2019-01-23T05:08:39.084Z,-3.07
2019-01-23T05:09:39.097Z,-3.16
2019-01-23T05:10:39.066Z,-3.04
2019-01-23T05:11:39.054Z,-3.15
2019-01-23T05:12:39.028Z,-3.1
2019-01-23T05:13:39.015Z,-3.13
2019-01-23T05:14:38.995Z,-3.09
2019-01-23T05:15:39.003Z,-3.1
2019-01-23T05:16:38.994Z,-3.16
2019-01-23T05:17:38.694Z,-3.15
2019-01-23T05:18:38.674Z,-3.15
2019-01-23T05:19:38.932Z,-3.06
2019-01-23T05:20:38.897Z,-3.12
2019-01-23T05:21:38.901Z,-3.15
2019-01-23T05:22:38.932Z,-3.17
2019-01-23T05:23:38.852Z,-3.19
2019-01-23T05:24:38.594Z,-3.15
2019-01-23T05:25:38.581Z,-3.13
2019-01-23T05:26:39.572Z,-3.1
2019-01-23T05:27:38.803Z,-3.13
2019-01-23T05:28:38.774Z,-3.16
2019-01-23T05:29:38.765Z,-3.1
2019-01-23T05:30:38.744Z,-3.09
2019-01-23T05:31:38.496Z,-3.16
2019-01-23T05:32:38.729Z,-3.16
2019-01-23T05:33:38.460Z,-3.16
2019-01-23T05:34:38.690Z,-3.23
2019-01-23T05:35:38.684Z,-3.17
2019-01-23T05:36:38.652Z,-3.17
2019-01-23T05:37:38.403Z,-3.2
2019-01-23T05:38:38.379Z,-3.17
2019-01-23T05:39:38.618Z,-3.25
2019-01-23T05:40:38.344Z,-3.33
2019-01-23T05:41:38.343Z,-3.31
2019-01-23T05:42:38.330Z,-3.33
2019-01-23T05:43:38.579Z,-3.3
2019-01-23T05:44:38.545Z,-3.38
2019-01-23T05:45:38.540Z,-3.34
2019-01-23T05:46:38.520Z,-3.46
2019-01-23T05:47:38.486Z,-3.38
2019-01-23T05:48:38.234Z,-3.41
2019-01-23T05:49:38.209Z,-3.34
2019-01-23T05:50:37.952Z,-3.37
2019-01-23T05:51:38.442Z,-3.45
2019-01-23T05:52:38.172Z,-3.4
2019-01-23T05:53:38.412Z,-3.52
2019-01-23T05:54:38.396Z,-3.49
2019-01-23T05:55:38.381Z,-3.52
2019-01-23T05:56:38.366Z,-3.48
2019-01-23T05:57:38.340Z,-3.45
2019-01-23T05:58:38.324Z,-3.41
2019-01-23T05:59:38.065Z,-3.4
2019-01-23T06:00:38.292Z,-3.38
2019-01-23T06:01:38.285Z,-3.44
2019-01-23T06:02:38.282Z,-3.33
2019-01-23T06:03:38.053Z,-3.44
2019-01-23T06:04:37.988Z,-3.34
2019-01-23T06:05:37.970Z,-3.41
2019-01-23T06:06:38.217Z,-3.33
2019-01-23T06:07:38.176Z,-3.35
2019-01-23T06:08:37.916Z,-3.37
2019-01-23T06:09:38.163Z,-3.46
2019-01-23T06:10:37.641Z,-3.44
2019-01-23T06:11:38.124Z,-3.41
2019-01-23T06:12:38.103Z,-3.35
2019-01-23T06:13:38.096Z,-3.45
2019-01-23T06:14:37.825Z,-3.41
2019-01-23T06:15:38.062Z,-3.41
2019-01-23T06:16:38.048Z,-3.38
2019-01-23T06:17:38.044Z,-3.48
2019-01-23T06:18:38.026Z,-3.56
2019-01-23T06:19:38.004Z,-3.55
2019-01-23T06:20:37.767Z,-3.56
2019-01-23T06:21:37.976Z,-3.54
2019-01-23T06:22:37.969Z,-3.61
2019-01-23T06:23:37.707Z,-3.56
2019-01-23T06:24:37.668Z,-3.54
2019-01-23T06:25:37.911Z,-3.58
2019-01-23T06:26:37.661Z,-3.61
2019-01-23T06:27:37.881Z,-3.52
2019-01-23T06:28:37.623Z,-3.41
2019-01-23T06:29:37.859Z,-3.4
2019-01-23T06:30:37.835Z,-3.4
2019-01-23T06:31:37.818Z,-3.46
2019-01-23T06:32:37.827Z,-3.48
2019-01-23T06:33:37.615Z,-3.38
2019-01-23T06:34:37.528Z,-3.41
2019-01-23T06:35:37.522Z,-3.38
2019-01-23T06:36:37.246Z,-3.38
2019-01-23T06:37:37.483Z,-3.45
2019-01-23T06:38:37.476Z,-3.49
2019-01-23T06:39:37.719Z,-3.49
2019-01-23T06:40:37.179Z,-3.49
2019-01-23T06:41:37.426Z,-3.48
2019-01-23T06:42:37.650Z,-3.51
2019-01-23T06:43:37.636Z,-3.56
2019-01-23T06:44:37.630Z,-3.54
2019-01-23T06:45:37.362Z,-3.51
2019-01-23T06:46:37.092Z,-3.54
2019-01-23T06:47:37.584Z,-3.56
2019-01-23T06:48:37.327Z,-3.56
2019-01-23T06:49:37.304Z,-3.58
2019-01-23T06:50:37.301Z,-3.55
2019-01-23T06:51:37.518Z,-3.59
2019-01-23T06:52:37.500Z,-3.55
2019-01-23T06:53:37.495Z,-3.46
2019-01-23T06:54:37.217Z,-3.46
2019-01-23T06:55:36.950Z,-3.4
2019-01-23T06:56:37.222Z,-3.46
2019-01-23T06:57:37.168Z,-3.4
2019-01-23T06:58:36.909Z,-3.38
2019-01-23T06:59:36.896Z,-3.4
2019-01-23T07:00:37.126Z,-3.46
2019-01-23T07:01:37.367Z,-3.41
2019-01-23T07:02:37.086Z,-3.44
2019-01-23T07:03:36.834Z,-3.46
2019-01-23T07:04:37.078Z,-3.38
2019-01-23T07:05:37.061Z,-3.45
2019-01-23T07:06:37.039Z,-3.4
2019-01-23T07:07:37.019Z,-3.41
2019-01-23T07:08:36.763Z,-3.31
2019-01-23T07:09:37.262Z,-3.33
2019-01-23T07:10:36.979Z,-3.28
2019-01-23T07:11:37.206Z,-3.31
2019-01-23T07:12:37.211Z,-3.34
2019-01-23T07:13:37.186Z,-3.22
2019-01-23T07:14:37.194Z,-3.35
2019-01-23T07:15:36.654Z,-3.27
2019-01-23T07:16:36.666Z,-3.33
2019-01-23T07:17:37.122Z,-3.2
2019-01-23T07:18:36.605Z,-3.19
2019-01-23T07:19:37.097Z,-3.23
2019-01-23T07:20:37.086Z,-3.22
2019-01-23T07:21:36.591Z,-3.23
2019-01-23T07:22:36.796Z,-3.2
2019-01-23T07:23:37.023Z,-3.1
2019-01-23T07:24:37.015Z,-3.16
2019-01-23T07:25:36.748Z,-3.2
2019-01-23T07:26:36.742Z,-3.07
2019-01-23T07:27:36.961Z,-3.15
2019-01-23T07:28:36.966Z,-3.16
2019-01-23T07:29:36.688Z,-3.13
2019-01-23T07:30:36.421Z,-3.16
2019-01-23T07:31:36.911Z,-3.06
2019-01-23T07:32:36.891Z,-3.04
2019-01-23T07:33:36.627Z,-3.02
2019-01-23T07:34:36.862Z,-3.1
2019-01-23T07:35:36.605Z,-2.99
2019-01-23T07:36:36.846Z,-2.95
2019-01-23T07:37:36.811Z,-2.97
2019-01-23T07:38:36.548Z,-2.94
2019-01-23T07:39:36.535Z,-2.92
2019-01-23T07:40:36.768Z,-2.88
2019-01-23T07:41:36.510Z,-2.84
2019-01-23T07:42:36.490Z,-2.84
2019-01-23T07:43:36.468Z,-2.84
2019-01-23T07:44:36.722Z,-2.84
2019-01-23T07:45:36.217Z,-2.81
2019-01-23T07:46:36.182Z,-2.8
2019-01-23T07:47:36.415Z,-2.86
2019-01-23T07:48:36.651Z,-2.8
2019-01-23T07:49:36.639Z,-2.73
2019-01-23T07:50:36.626Z,-2.71
2019-01-23T07:51:36.360Z,-2.71
2019-01-23T07:52:36.351Z,-2.74
2019-01-23T07:53:36.332Z,-2.7
2019-01-23T07:54:36.577Z,-2.65
2019-01-23T07:55:36.304Z,-2.55
2019-01-23T07:56:36.532Z,-2.53
2019-01-23T07:57:36.261Z,-2.58
2019-01-23T07:58:36.252Z,-2.55
2019-01-23T07:59:36.269Z,-2.52
2019-01-23T08:00:36.334Z,-2.55
2019-01-23T08:01:36.558Z,-2.59
2019-01-23T08:02:36.450Z,-2.56
2019-01-23T08:03:36.416Z,-2.56
2019-01-23T08:04:35.925Z,-2.48
2019-01-23T08:05:36.145Z,-2.47
2019-01-23T08:06:36.141Z,-2.38
2019-01-23T08:07:36.139Z,-2.3
2019-01-23T08:08:35.867Z,-2.25
2019-01-23T08:09:36.091Z,-2.26
2019-01-23T08:10:36.341Z,-2.21
2019-01-23T08:11:36.310Z,-2.13
2019-01-23T08:12:36.052Z,-2.13
2019-01-23T08:13:35.787Z,-2.15
2019-01-23T08:14:36.273Z,-2.1
2019-01-23T08:15:36.258Z,-1.97
2019-01-23T08:16:35.992Z,-1.92
2019-01-23T08:17:37.779Z,-2.04
2019-01-23T08:18:35.962Z,-1.92
2019-01-23T08:19:35.942Z,-1.9
2019-01-23T08:20:35.930Z,-1.86
2019-01-23T08:21:36.187Z,-1.77
2019-01-23T08:22:35.916Z,-1.71
2019-01-23T08:23:35.897Z,-1.64
2019-01-23T08:24:35.638Z,-1.61
2019-01-23T08:25:36.116Z,-1.61
2019-01-23T08:26:36.115Z,-1.56
2019-01-23T08:27:36.135Z,-1.54
2019-01-23T08:28:35.842Z,-1.59
2019-01-23T08:29:35.916Z,-1.51
2019-01-23T08:30:43.423Z,-1.46
2019-01-23T08:31:36.036Z,-1.56
2019-01-23T08:32:35.770Z,-1.46
2019-01-23T08:33:35.753Z,-1.54
2019-01-23T08:34:35.993Z,-1.53
2019-01-23T08:35:35.736Z,-1.4
2019-01-23T08:36:35.960Z,-1.46
2019-01-23T08:37:35.963Z,-1.44
2019-01-23T08:38:35.941Z,-1.4
2019-01-23T08:39:35.936Z,-1.37
2019-01-23T08:40:35.907Z,-1.32
2019-01-23T08:41:35.891Z,-1.3
2019-01-23T08:42:35.637Z,-1.37
2019-01-23T08:43:35.616Z,-1.33
2019-01-23T08:44:35.363Z,-1.27
2019-01-23T08:45:35.620Z,-1.3
2019-01-23T08:46:35.572Z,-1.33
2019-01-23T08:47:35.805Z,-1.26
2019-01-23T08:48:35.802Z,-1.17
2019-01-23T08:49:35.558Z,-1.14
2019-01-23T08:50:35.276Z,-1.09
2019-01-23T08:51:35.298Z,-1.12
2019-01-23T08:52:35.515Z,-1.05
2019-01-23T08:53:35.727Z,-1.05
2019-01-23T08:54:35.212Z,-0.94
2019-01-23T08:55:35.496Z,-0.96
2019-01-23T08:56:35.187Z,-0.89
2019-01-23T08:57:35.428Z,-0.82
2019-01-23T08:58:35.422Z,-0.78
2019-01-23T08:59:35.656Z,-0.8
2019-01-23T09:00:36.399Z,-0.74
2019-01-23T09:01:35.383Z,-0.72
2019-01-23T09:02:35.618Z,-0.65
2019-01-23T09:03:35.101Z,-0.67
2019-01-23T09:04:35.583Z,-0.65
2019-01-23T09:05:35.073Z,-0.57
2019-01-23T09:06:35.337Z,-0.49
2019-01-23T09:07:35.325Z,-0.47
2019-01-23T09:08:42.169Z,-0.52
2019-01-23T09:09:35.546Z,-0.5
2019-01-23T09:10:35.280Z,-0.49
2019-01-23T09:11:35.522Z,-0.5
2019-01-23T09:12:34.994Z,-0.44
2019-01-23T09:13:35.248Z,-0.36
2019-01-23T09:14:35.268Z,-0.46
2019-01-23T09:15:35.471Z,-0.46
2019-01-23T09:16:34.938Z,-0.47
2019-01-23T09:17:34.949Z,-0.41
2019-01-23T09:18:35.160Z,-0.41
2019-01-23T09:19:35.420Z,-0.44
2019-01-23T09:20:35.412Z,-0.46
2019-01-23T09:21:35.400Z,-0.41
2019-01-23T09:22:35.369Z,-0.32
2019-01-23T09:23:35.350Z,-0.35
2019-01-23T09:24:35.080Z,-0.28
2019-01-23T09:25:35.332Z,-0.2
2019-01-23T09:26:35.048Z,-0.26
2019-01-23T09:27:35.327Z,-0.23
2019-01-23T09:28:35.296Z,-0.18
2019-01-23T09:29:35.015Z,-0.14
2019-01-23T09:30:35.008Z,-0.13
2019-01-23T09:31:34.985Z,-0.1
2019-01-23T09:32:34.967Z,-0.28
2019-01-23T09:33:34.710Z,-0.23
2019-01-23T09:34:35.190Z,-0.29
2019-01-23T09:35:35.185Z,-0.35
2019-01-23T09:36:34.921Z,-0.23
2019-01-23T09:37:35.355Z,-0.31
2019-01-23T09:38:35.137Z,-0.25
2019-01-23T09:39:35.141Z,-0.2
2019-01-23T09:40:34.889Z,-0.31
2019-01-23T09:41:34.856Z,-0.13
2019-01-23T09:42:34.847Z,-0.1
2019-01-23T09:43:34.843Z,-0.07
2019-01-23T09:44:35.066Z,-0.11
2019-01-23T09:45:34.827Z,-0.07
2019-01-23T09:46:35.038Z,-0.03
2019-01-23T09:47:35.028Z,0.16
2019-01-23T09:48:35.015Z,0.12
2019-01-23T09:49:34.761Z,0.12
2019-01-23T09:50:34.740Z,0.15
2019-01-23T09:51:34.738Z,0.16
2019-01-23T09:52:34.971Z,0.18
2019-01-23T09:53:34.452Z,0.16
2019-01-23T09:54:34.951Z,0.23
2019-01-23T09:55:34.933Z,0.19
2019-01-23T09:56:34.415Z,0.15
2019-01-23T09:57:34.646Z,0.18
2019-01-23T09:58:34.639Z,0.28
2019-01-23T09:59:34.883Z,0.26
2019-01-23T10:00:36.772Z,0.29
2019-01-23T10:01:34.609Z,0.29
2019-01-23T10:02:34.857Z,0.39
2019-01-23T10:03:34.841Z,0.39
2019-01-23T10:04:34.569Z,0.31
2019-01-23T10:05:34.572Z,0.32
2019-01-23T10:06:34.550Z,0.31
2019-01-23T10:07:34.789Z,0.31
2019-01-23T10:08:34.515Z,0.4
2019-01-23T10:09:34.506Z,0.47
2019-01-23T10:10:34.737Z,0.36
2019-01-23T10:11:34.249Z,0.37
2019-01-23T10:12:34.725Z,0.29
2019-01-23T10:13:34.464Z,0.34
2019-01-23T10:14:34.470Z,0.43
2019-01-23T10:15:34.436Z,0.4
2019-01-23T10:16:34.678Z,0.4
2019-01-23T10:17:34.420Z,0.44
2019-01-23T10:18:34.412Z,0.46
2019-01-23T10:19:34.406Z,0.46
2019-01-23T10:20:34.638Z,0.46
2019-01-23T10:21:34.637Z,0.58
2019-01-23T10:22:34.366Z,0.66
2019-01-23T10:23:34.352Z,0.65
2019-01-23T10:24:40.609Z,0.62
2019-01-23T10:25:34.061Z,0.6
2019-01-23T10:26:34.541Z,0.6
2019-01-23T10:27:34.040Z,0.68
2019-01-23T10:28:34.512Z,0.66
2019-01-23T10:29:34.283Z,0.74
2019-01-23T10:30:34.258Z,0.78
2019-01-23T10:31:34.511Z,0.73
2019-01-23T10:32:33.992Z,0.74
2019-01-23T10:33:34.462Z,0.77
2019-01-23T10:34:34.875Z,0.66
2019-01-23T10:35:34.438Z,0.74
2019-01-23T10:36:34.434Z,0.65
2019-01-23T10:37:34.422Z,0.68
2019-01-23T10:38:34.398Z,0.73
2019-01-23T10:39:34.158Z,0.73
2019-01-23T10:40:33.877Z,0.74
2019-01-23T10:41:34.116Z,0.83
2019-01-23T10:42:34.126Z,0.83
2019-01-23T10:43:33.862Z,0.91
2019-01-23T10:44:34.096Z,0.83
2019-01-23T10:45:34.070Z,0.84
2019-01-23T10:46:34.058Z,0.86
2019-01-23T10:47:34.040Z,0.88
2019-01-23T10:48:40.471Z,0.88
2019-01-23T10:49:34.031Z,0.91
2019-01-23T10:50:34.251Z,0.86
2019-01-23T10:51:34.002Z,0.94
2019-01-23T10:52:33.979Z,0.92
2019-01-23T10:53:33.967Z,1.04
2019-01-23T10:54:34.211Z,1.05
2019-01-23T10:55:33.956Z,0.96
2019-01-23T10:56:33.947Z,1.14
2019-01-23T10:57:34.210Z,1.12
2019-01-23T10:58:34.171Z,1.16
2019-01-23T10:59:33.922Z,1.16
2019-01-23T11:00:34.142Z,1.24
2019-01-23T11:01:33.896Z,1.23
2019-01-23T11:02:34.123Z,1.38
2019-01-23T11:03:33.880Z,1.4
2019-01-23T11:04:34.184Z,1.38
2019-01-23T11:05:34.093Z,1.38
2019-01-23T11:06:34.264Z,1.4
2019-01-23T11:07:33.809Z,1.45
2019-01-23T11:08:34.065Z,1.52
2019-01-23T11:09:34.179Z,1.56
2019-01-23T11:10:33.786Z,1.48
2019-01-23T11:11:34.019Z,1.56
2019-01-23T11:12:33.750Z,1.58
2019-01-23T11:13:33.982Z,1.58
2019-01-23T11:14:33.979Z,1.66
2019-01-23T11:15:33.983Z,1.74
2019-01-23T11:16:33.711Z,1.88
2019-01-23T11:17:33.952Z,1.88
2019-01-23T11:18:33.703Z,1.94
2019-01-23T11:19:33.922Z,2.06
2019-01-23T11:20:33.673Z,2.1
2019-01-23T11:21:33.432Z,2.18
2019-01-23T11:22:33.647Z,2.2
2019-01-23T11:23:33.638Z,2.38
2019-01-23T11:24:33.627Z,2.39
2019-01-23T11:25:33.616Z,2.36
2019-01-23T11:26:33.604Z,2.51
2019-01-23T11:27:33.838Z,2.5
2019-01-23T11:28:33.831Z,2.5
2019-01-23T11:29:33.337Z,2.56
2019-01-23T11:30:33.820Z,2.54
2019-01-23T11:31:33.309Z,2.56
2019-01-23T11:32:33.792Z,2.53
2019-01-23T11:33:33.790Z,2.42
2019-01-23T11:34:33.527Z,2.28
2019-01-23T11:35:33.791Z,2.25
2019-01-23T11:36:33.749Z,2.17
2019-01-23T11:37:33.740Z,2.25
2019-01-23T11:38:33.491Z,2.28
2019-01-23T11:39:33.741Z,2.36
2019-01-23T11:40:33.731Z,2.54
2019-01-23T11:41:33.457Z,2.51
2019-01-23T11:42:33.693Z,2.43
2019-01-23T11:43:33.460Z,2.39
2019-01-23T11:44:33.686Z,2.44
2019-01-23T11:45:33.699Z,2.53
2019-01-23T11:46:33.414Z,2.6
2019-01-23T11:47:33.435Z,2.74
2019-01-23T11:48:33.646Z,2.77
2019-01-23T11:49:33.627Z,2.68
2019-01-23T11:50:33.377Z,2.79
2019-01-23T11:51:33.967Z,2.75
2019-01-23T11:52:33.350Z,2.72
2019-01-23T11:53:33.350Z,2.69
2019-01-23T11:54:33.339Z,2.57
2019-01-23T11:55:33.603Z,2.57
2019-01-23T11:56:33.568Z,2.61
2019-01-23T11:57:33.567Z,2.67
2019-01-23T11:58:33.554Z,2.68
2019-01-23T11:59:33.527Z,2.65
2019-01-23T12:00:33.528Z,2.62
2019-01-23T12:01:33.504Z,2.62
2019-01-23T12:02:35.829Z,2.53
2019-01-23T12:03:33.267Z,2.25
2019-01-23T12:04:33.496Z,2.13
2019-01-23T12:05:33.476Z,1.91
2019-01-23T12:06:33.469Z,1.78
2019-01-23T12:07:33.470Z,1.63
2019-01-23T12:08:33.196Z,1.59
2019-01-23T12:09:33.189Z,1.7
2019-01-23T12:10:33.431Z,1.73
2019-01-23T12:11:33.178Z,1.76
2019-01-23T12:12:32.925Z,1.77
2019-01-23T12:13:33.156Z,1.76
2019-01-23T12:14:33.398Z,1.6
2019-01-23T12:15:33.144Z,1.59
2019-01-23T12:16:33.370Z,1.67
2019-01-23T12:17:33.353Z,1.73
2019-01-23T12:18:33.347Z,1.74
2019-01-23T12:19:32.855Z,1.85
2019-01-23T12:20:33.339Z,1.94
2019-01-23T12:21:33.329Z,2.04
2019-01-23T12:22:33.310Z,2.08
2019-01-23T12:23:33.300Z,2.11
2019-01-23T12:24:33.313Z,2.15
2019-01-23T12:25:33.041Z,2.22
2019-01-23T12:26:33.285Z,2.22
2019-01-23T12:27:33.007Z,2.15
2019-01-23T12:28:33.240Z,2.14
2019-01-23T12:29:33.272Z,2.11
2019-01-23T12:30:33.231Z,2.06
2019-01-23T12:31:39.479Z,2.25
2019-01-23T12:32:32.951Z,2.08
2019-01-23T12:33:32.946Z,2.02
2019-01-23T12:34:32.941Z,1.77
2019-01-23T12:35:32.920Z,1.6
2019-01-23T12:36:33.171Z,1.45
2019-01-23T12:37:33.160Z,1.45
2019-01-23T12:38:33.131Z,1.37
2019-01-23T12:39:33.138Z,1.22
2019-01-23T12:40:33.141Z,1.2
2019-01-23T12:41:33.108Z,1.19
2019-01-23T12:42:33.097Z,1.1
2019-01-23T12:43:33.091Z,1.22
2019-01-23T12:44:32.837Z,1.12
2019-01-23T12:45:33.049Z,0.96
2019-01-23T12:46:33.071Z,0.99
2019-01-23T12:47:33.079Z,1.04
2019-01-23T12:48:33.041Z,0.99
2019-01-23T12:49:33.003Z,1.02
2019-01-23T12:50:33.012Z,1.08
2019-01-23T12:51:32.985Z,1.19
2019-01-23T12:52:32.961Z,1.2
2019-01-23T12:53:32.964Z,1.2
2019-01-23T12:54:32.694Z,1.24
2019-01-23T12:55:33.141Z,1.28
2019-01-23T12:56:32.667Z,1.17
2019-01-23T12:57:32.409Z,1.22
2019-01-23T12:58:32.645Z,1.12
2019-01-23T12:59:32.920Z,1.01
2019-01-23T13:00:32.618Z,0.98
2019-01-23T13:01:32.605Z,1.02
2019-01-23T13:02:32.357Z,1.04
2019-01-23T13:03:32.887Z,1.05